This is the latest recevied weather packets stored in our database for station/object WX5HOT. If no packets are shown the sender has not sent any weather packets the latest 1 day(s).
| Time | Temp. | Humidity | Pressure | Rain* | Wind** | Luminosity | Snow |
|---|---|---|---|---|---|---|---|
| 1777989386 | 16.11° C | 99% | 1057.8 hPa | 1.27 mm | 1.34 m/s, 167° | 38 W/m² | - |
| 1777989083 | 16.11° C | 99% | 1057.8 hPa | 1.27 mm | 1.79 m/s, 170° | 40 W/m² | - |
| 1777988778 | 16.11° C | 99% | 1057.8 hPa | 1.78 mm | 0.89 m/s, 176° | 29 W/m² | - |
| 1777988476 | 16.11° C | 99% | 1057.6 hPa | 3.56 mm | 1.34 m/s, 171° | 36 W/m² | - |
| 1777988173 | 16.11° C | 99% | 1057.8 hPa | 1.78 mm | 1.79 m/s, 172° | 40 W/m² | - |
| 1777987869 | 16.11° C | 99% | 1057.7 hPa | 1.78 mm | 1.79 m/s, 175° | 38 W/m² | - |
| 1777987565 | 16.11° C | 99% | 1057.8 hPa | 1.27 mm | 1.34 m/s, 177° | 32 W/m² | - |
| 1777987263 | 16.11° C | 99% | 1057.6 hPa | 1.27 mm | 1.79 m/s, 176° | 30 W/m² | - |
| 1777986959 | 16.11° C | 99% | 1057.5 hPa | 0 mm | 1.79 m/s, 178° | 31 W/m² | - |
| 1777986658 | 16.11° C | 99% | 1057.4 hPa | 1.78 mm | 1.34 m/s, 171° | 22 W/m² | - |
| 1777986355 | 16.11° C | 99% | 1057.4 hPa | 1.78 mm | 1.34 m/s, 165° | 19 W/m² | - |
| 1777986054 | 16.11° C | 99% | 1057.7 hPa | 1.27 mm | 1.79 m/s, 181° | 16 W/m² | - |
| 1777985750 | 16.11° C | 99% | 1057.4 hPa | 1.27 mm | 2.24 m/s, 162° | 16 W/m² | - |
| 1777985447 | 16.11° C | 99% | 1057.2 hPa | 0 mm | 2.68 m/s, 229° | 21 W/m² | - |
| 1777985143 | 16.11° C | 99% | 1057.3 hPa | 0 mm | 1.79 m/s, 174° | 12 W/m² | - |
| 1777984839 | 16.11° C | 99% | 1057.1 hPa | 0 mm | 1.79 m/s, 192° | 11 W/m² | - |
| 1777984536 | 16.11° C | 99% | 1057 hPa | 1.78 mm | 1.34 m/s, 156° | 12 W/m² | - |
| 1777984232 | 16.11° C | 99% | 1056.8 hPa | 1.78 mm | 2.68 m/s, 188° | 12 W/m² | - |
| 1777983930 | 16.11° C | 98% | 1056.9 hPa | 0 mm | 1.79 m/s, 167° | 10 W/m² | - |
| 1777983627 | 16.11° C | 98% | 1057 hPa | 1.27 mm | 2.68 m/s, 177° | 10 W/m² | - |
| 1777983323 | 16.11° C | 98% | 1056.7 hPa | 1.27 mm | 2.68 m/s, 160° | 7 W/m² | - |
| 1777983019 | 16.11° C | 98% | 1057 hPa | 1.27 mm | 3.13 m/s, 169° | 5 W/m² | - |
| 1777982716 | 16.11° C | 98% | 1056.8 hPa | 0 mm | 2.24 m/s, 200° | 5 W/m² | - |
| 1777982411 | 16.11° C | 98% | 1056.9 hPa | 0 mm | 2.24 m/s, 191° | 4 W/m² | - |
| 1777982106 | 16.11° C | 98% | 1056.5 hPa | 0 mm | 1.79 m/s, 179° | 3 W/m² | - |
* Rain latest hour (hover to see other rain measurements)
** Current wind speed in m/s (hover to see current wind gust speed)